Time;durP1;ratioP1;P1;durP2;ratioP2;P2;SDS_P1;SDS_P2;PMS_P1;PMS_P2;Temp;Humidity;BMP_temperature;BMP_pressure;BME280_temperature;BME280_humidity;BME280_pressure;Samples;Min_cycle;Max_cycle;Signal;HPM_P1;HPM_P2
2022/10/23 00:00:51;;;;;;;;;3.00;3.00;;;;;22.08;57.41;100870.13;105536;1275;19724;-52
2022/10/23 00:03:33;;;;;;;;;2.00;2.00;;;;;22.10;57.38;100875.44;105528;1282;19651;-51
2022/10/23 00:06:01;;;;;;;;;5.00;5.00;;;;;22.09;57.36;100870.98;105544;1283;21581;-54
2022/10/23 00:08:28;;;;;;;;;2.00;2.00;;;;;22.10;57.29;100872.52;105495;1274;19523;-54
2022/10/23 00:10:55;;;;;;;;;4.00;3.00;;;;;22.09;57.32;100875.28;105532;1298;18445;-55
2022/10/23 00:13:22;;;;;;;;;3.00;3.00;;;;;22.10;57.35;100881.60;105525;1275;20024;-52
2022/10/23 00:15:50;;;;;;;;;4.00;3.00;;;;;22.10;57.26;100884.09;105513;1282;20704;-54
2022/10/23 00:18:17;;;;;;;;;3.50;2.50;;;;;22.10;57.31;100887.61;105560;1297;19879;-52
2022/10/23 00:20:44;;;;;;;;;3.00;2.00;;;;;22.09;57.14;100886.04;105435;1282;20060;-51
2022/10/23 00:23:12;;;;;;;;;3.00;3.00;;;;;22.09;57.23;100885.31;105518;1289;22201;-52
2022/10/23 00:25:39;;;;;;;;;3.00;3.00;;;;;22.07;57.23;100885.77;105537;1282;18396;-51
2022/10/23 00:28:06;;;;;;;;;3.00;3.00;;;;;22.08;57.10;100886.95;105521;1297;18754;-54
2022/10/23 00:30:33;;;;;;;;;2.00;2.00;;;;;22.08;57.25;100890.02;105454;1275;21850;-53
2022/10/23 00:33:01;;;;;;;;;5.00;5.00;;;;;22.07;57.26;100885.52;105537;1282;22208;-51
2022/10/23 00:35:28;;;;;;;;;5.00;5.00;;;;;22.07;57.15;100879.39;105516;1282;20177;-51
2022/10/23 00:37:55;;;;;;;;;3.00;3.00;;;;;22.07;57.14;100877.34;105482;1289;20744;-53
2022/10/23 00:40:22;;;;;;;;;2.00;2.00;;;;;22.09;57.00;100877.67;105483;1275;19855;-53
2022/10/23 00:42:50;;;;;;;;;5.00;3.00;;;;;22.08;56.98;100878.90;105479;1282;18552;-53
2022/10/23 00:45:17;;;;;;;;;2.00;2.00;;;;;22.08;57.04;100878.05;105554;1297;19583;-54
2022/10/23 00:47:44;;;;;;;;;3.50;2.50;;;;;22.07;57.13;100879.90;105536;1275;22305;-52
2022/10/23 00:50:12;;;;;;;;;2.00;2.00;;;;;22.06;56.99;100880.75;105544;1282;20208;-51
2022/10/23 00:52:39;;;;;;;;;2.00;2.00;;;;;22.06;56.95;100880.76;105521;1282;20937;-51
2022/10/23 00:55:06;;;;;;;;;2.00;2.00;;;;;22.05;56.93;100879.42;105524;1297;22706;-53
2022/10/23 00:57:34;;;;;;;;;3.00;3.00;;;;;22.05;56.97;100876.88;105576;1289;18511;-55
2022/10/23 01:00:01;;;;;;;;;2.00;2.00;;;;;22.06;56.88;100877.98;105549;1298;19486;-54
2022/10/23 01:02:28;;;;;;;;;2.00;2.00;;;;;22.07;56.90;100881.75;105528;1290;20400;-53
2022/10/23 01:04:55;;;;;;;;;2.00;2.00;;;;;22.07;56.89;100881.98;105560;1282;18524;-55
2022/10/23 01:07:23;;;;;;;;;4.00;4.00;;;;;22.06;57.02;100882.60;105565;1298;20899;-55
2022/10/23 01:09:50;;;;;;;;;3.00;2.50;;;;;22.05;56.88;100883.92;105542;1282;18665;-55
2022/10/23 01:12:17;;;;;;;;;3.00;3.00;;;;;22.05;56.86;100889.02;105499;1282;19751;-55
2022/10/23 01:14:45;;;;;;;;;3.00;2.00;;;;;22.07;56.83;100894.69;105519;1297;19754;-53
2022/10/23 01:17:12;;;;;;;;;2.00;2.00;;;;;22.05;56.96;100895.40;105534;1297;20127;-55
2022/10/23 01:19:41;;;;;;;;;2.00;2.00;;;;;22.05;56.84;100898.39;105494;1285;22854;-53
2022/10/23 01:22:08;;;;;;;;;2.00;2.00;;;;;22.06;56.90;100900.75;105498;1281;22796;-54
2022/10/23 01:24:37;;;;;;;;;5.00;3.00;;;;;22.06;56.92;100899.36;105540;1298;19586;-54
2022/10/23 01:27:04;;;;;;;;;3.00;2.00;;;;;22.06;56.98;100896.08;105563;1289;20006;-52
2022/10/23 01:29:31;;;;;;;;;3.00;3.00;;;;;22.06;56.89;100898.09;105548;1297;20769;-55
2022/10/23 01:31:59;;;;;;;;;2.00;2.00;;;;;22.05;56.80;100893.38;105574;1298;22131;-52
2022/10/23 01:34:26;;;;;;;;;1.00;1.00;;;;;22.04;57.03;100888.06;105557;1300;18536;-54
2022/10/23 01:36:53;;;;;;;;;3.00;2.00;;;;;22.06;56.83;100882.42;105428;1291;22001;-52
2022/10/23 01:39:21;;;;;;;;;2.00;2.00;;;;;22.07;56.85;100882.48;105513;1300;19830;-54
2022/10/23 01:41:48;;;;;;;;;2.00;2.00;;;;;22.07;56.94;100881.52;105501;1275;23390;-55
2022/10/23 01:44:15;;;;;;;;;3.00;2.00;;;;;22.08;56.88;100874.36;105485;1281;22194;-57
2022/10/23 01:46:42;;;;;;;;;2.00;2.00;;;;;22.06;56.73;100866.01;105553;1289;18505;-55
2022/10/23 01:49:10;;;;;;;;;3.00;2.00;;;;;22.05;56.80;100870.73;105444;1275;20005;-56
2022/10/23 01:51:37;;;;;;;;;2.00;2.00;;;;;22.05;56.89;100869.23;105543;1282;20741;-55
2022/10/23 01:54:04;;;;;;;;;3.00;3.00;;;;;22.06;56.79;100864.17;105648;1292;20112;-55
2022/10/23 01:59:17;;;;;;;;;2.00;2.00;;;;;22.03;56.89;100855.83;105361;1275;20819;-55
2022/10/23 02:01:44;;;;;;;;;3.00;3.00;;;;;22.03;56.69;100852.69;105491;1275;18612;-52
2022/10/23 02:04:12;;;;;;;;;2.00;2.00;;;;;22.05;56.88;100850.56;105520;1282;20134;-51
2022/10/23 02:06:39;;;;;;;;;2.00;2.00;;;;;22.04;56.81;100844.89;105505;1282;19287;-53
2022/10/23 02:09:06;;;;;;;;;3.00;2.00;;;;;22.05;56.77;100843.44;105532;1296;18380;-54
2022/10/23 02:11:33;;;;;;;;;4.00;4.00;;;;;22.05;56.69;100849.44;105561;1274;20070;-54
2022/10/23 02:14:01;;;;;;;;;5.00;3.00;;;;;22.04;56.83;100853.88;105599;1283;21108;-53
2022/10/23 02:16:28;;;;;;;;;5.00;4.00;;;;;22.05;56.67;100853.30;105530;1282;19818;-55
2022/10/23 02:18:55;;;;;;;;;3.00;2.00;;;;;22.03;56.74;100855.41;105533;1278;18839;-57
2022/10/23 02:21:23;;;;;;;;;4.00;2.50;;;;;22.03;56.73;100857.27;105538;1298;19300;-54
2022/10/23 02:23:50;;;;;;;;;3.50;3.50;;;;;22.03;56.77;100862.17;105587;1282;19669;-54
2022/10/23 02:26:17;;;;;;;;;3.00;2.00;;;;;22.03;56.73;100860.23;105508;1274;21632;-53
2022/10/23 02:28:45;;;;;;;;;2.00;2.00;;;;;22.02;56.77;100859.94;105531;1282;21024;-52
2022/10/23 02:31:12;;;;;;;;;3.00;3.00;;;;;22.02;56.78;100868.63;105561;1291;18547;-53
2022/10/23 02:33:39;;;;;;;;;3.00;3.00;;;;;22.04;56.69;100873.39;105497;1297;21515;-52
2022/10/23 02:36:06;;;;;;;;;3.50;3.00;;;;;22.03;56.65;100873.98;105470;1281;19750;-55
2022/10/23 02:38:34;;;;;;;;;5.00;4.00;;;;;22.03;56.67;100865.23;105568;1275;19905;-52
2022/10/23 02:41:01;;;;;;;;;2.50;2.50;;;;;22.03;56.78;100861.80;105555;1289;18519;-55
2022/10/23 02:43:28;;;;;;;;;3.50;3.00;;;;;22.03;56.71;100865.28;105509;1275;19193;-53
2022/10/23 02:45:56;;;;;;;;;2.00;2.00;;;;;22.02;56.81;100867.38;105537;1298;19608;-54
2022/10/23 02:48:23;;;;;;;;;4.00;3.00;;;;;22.02;56.79;100873.76;105453;1282;20121;-51
2022/10/23 02:50:50;;;;;;;;;4.00;4.00;;;;;22.03;56.79;100873.13;105511;1275;22882;-54
2022/10/23 02:53:17;;;;;;;;;2.00;2.00;;;;;22.03;56.60;100868.17;105576;1291;18452;-56
2022/10/23 02:55:45;;;;;;;;;2.00;2.00;;;;;22.03;56.77;100870.95;105576;1282;20287;-54
2022/10/23 02:58:12;;;;;;;;;2.50;2.00;;;;;22.03;56.76;100877.70;105537;1282;22012;-51
2022/10/23 03:00:39;;;;;;;;;2.00;2.00;;;;;22.03;56.74;100880.44;105547;1289;22888;-54
2022/10/23 03:03:07;;;;;;;;;3.50;2.00;;;;;22.03;56.78;100879.85;105525;1300;18536;-51
2022/10/23 03:05:34;;;;;;;;;2.00;2.00;;;;;22.02;56.76;100879.29;105603;1297;20051;-54
2022/10/23 03:08:01;;;;;;;;;2.00;2.00;;;;;22.02;56.68;100883.45;105554;1276;19643;-55
2022/10/23 03:10:28;;;;;;;;;4.00;2.00;;;;;22.02;56.76;100885.13;105545;1282;20143;-51
2022/10/23 03:12:56;;;;;;;;;2.00;2.00;;;;;22.02;56.89;100888.54;105527;1300;19500;-52
2022/10/23 03:15:23;;;;;;;;;2.00;2.00;;;;;22.01;56.91;100886.66;105563;1283;19835;-51
2022/10/23 03:17:50;;;;;;;;;2.00;2.00;;;;;22.02;56.78;100881.05;105544;1298;21381;-52
2022/10/23 03:20:18;;;;;;;;;2.00;2.00;;;;;22.03;56.83;100883.13;105517;1275;19337;-52
2022/10/23 03:22:45;;;;;;;;;2.00;2.00;;;;;22.02;56.85;100881.85;105511;1282;20022;-50
2022/10/23 03:25:12;;;;;;;;;2.00;2.00;;;;;22.00;56.84;100882.20;105519;1282;18532;-54
2022/10/23 03:27:40;;;;;;;;;2.00;2.00;;;;;22.02;56.79;100888.02;105522;1291;21016;-57
2022/10/23 03:30:07;;;;;;;;;2.00;2.00;;;;;22.01;56.80;100892.09;105569;1291;18386;-54
2022/10/23 03:32:34;;;;;;;;;2.00;2.00;;;;;22.01;56.75;100892.67;105526;1297;18551;-53
2022/10/23 03:35:01;;;;;;;;;2.00;2.00;;;;;22.01;56.89;100893.73;105502;1282;19658;-51
2022/10/23 03:37:29;;;;;;;;;4.00;2.00;;;;;22.01;56.78;100896.66;105505;1275;18367;-54
2022/10/23 03:39:56;;;;;;;;;3.50;3.50;;;;;22.02;56.88;100895.66;105560;1297;20044;-52
2022/10/23 03:42:23;;;;;;;;;2.00;2.00;;;;;22.01;56.69;100896.29;105545;1289;20911;-53
2022/10/23 03:44:51;;;;;;;;;2.00;2.00;;;;;22.01;56.87;100891.92;105599;1298;19623;-51
2022/10/23 03:47:18;;;;;;;;;2.00;2.00;;;;;22.02;56.80;100897.80;105566;1300;18779;-54
2022/10/23 03:49:45;;;;;;;;;2.00;2.00;;;;;22.02;56.76;100897.77;105517;1275;20867;-54
2022/10/23 03:52:12;;;;;;;;;4.00;2.00;;;;;22.01;56.93;100898.25;105511;1297;23935;-52
2022/10/23 03:54:40;;;;;;;;;3.00;2.50;;;;;22.01;56.79;100901.98;105475;1275;19926;-55
2022/10/23 03:57:07;;;;;;;;;2.00;2.00;;;;;22.01;56.76;100899.19;105525;1282;19509;-55
2022/10/23 03:59:34;;;;;;;;;1.00;1.00;;;;;22.01;56.75;100896.07;105575;1282;18343;-56
2022/10/23 04:02:02;;;;;;;;;1.00;1.00;;;;;22.01;56.72;100897.79;105453;1282;23012;-57
2022/10/23 04:04:29;;;;;;;;;2.00;2.00;;;;;22.01;56.76;100899.39;105517;1275;19392;-54
2022/10/23 04:06:56;;;;;;;;;2.50;2.00;;;;;22.01;56.74;100900.45;105610;1275;18399;-56
2022/10/23 04:09:24;;;;;;;;;3.00;2.00;;;;;22.00;56.87;100897.45;105531;1297;18526;-53
2022/10/23 04:11:51;;;;;;;;;2.50;2.50;;;;;22.00;56.73;100899.70;105594;1282;21220;-55
2022/10/23 04:14:18;;;;;;;;;2.00;2.00;;;;;22.00;56.80;100898.91;105568;1275;20033;-55
2022/10/23 04:16:45;;;;;;;;;3.00;3.00;;;;;21.99;56.63;100893.21;105521;1275;20199;-55
2022/10/23 04:19:13;;;;;;;;;5.00;5.00;;;;;21.99;56.68;100890.52;105527;1298;20832;-55
2022/10/23 04:21:40;;;;;;;;;2.00;2.00;;;;;21.99;56.73;100894.35;105574;1282;19957;-53
2022/10/23 04:24:07;;;;;;;;;;;;;;;22.00;56.75;100899.52;105586;1279;23465;-54
2022/10/23 04:26:34;;;;;;;;;4.00;2.00;;;;;22.00;56.77;100907.85;105602;1291;21335;-53
2022/10/23 04:29:02;;;;;;;;;4.00;3.00;;;;;21.99;56.57;100907.21;105549;1298;18765;-53
2022/10/23 04:31:29;;;;;;;;;2.00;2.00;;;;;22.00;56.88;100912.83;105589;1297;18659;-55
2022/10/23 04:33:56;;;;;;;;;;;;;;;21.99;56.85;100913.41;105539;1289;20900;-56
2022/10/23 04:36:24;;;;;;;;;2.00;2.00;;;;;21.99;56.75;100911.88;105560;1281;21736;-55
2022/10/23 04:38:52;;;;;;;;;;;;;;;22.00;56.82;100912.29;105592;1297;20063;-52
2022/10/23 04:41:19;;;;;;;;;2.00;2.00;;;;;21.99;56.83;100909.62;105531;1275;19345;-55
2022/10/23 04:43:46;;;;;;;;;2.00;2.00;;;;;21.99;56.63;100913.48;105533;1282;19307;-54
2022/10/23 04:46:14;;;;;;;;;2.00;2.00;;;;;21.99;56.84;100909.59;105517;1282;20253;-52
2022/10/23 04:48:41;;;;;;;;;2.00;2.00;;;;;21.99;56.76;100909.48;105597;1275;20813;-54
2022/10/23 04:51:08;;;;;;;;;2.50;2.50;;;;;21.99;56.87;100907.27;105564;1275;19931;-54
2022/10/23 04:53:37;;;;;;;;;2.00;2.00;;;;;22.00;56.63;100907.71;105591;1291;18820;-53
2022/10/23 04:56:05;;;;;;;;;3.00;2.00;;;;;22.00;56.64;100907.89;105562;1275;20949;-52
2022/10/23 04:58:32;;;;;;;;;2.33;2.00;;;;;21.99;56.78;100908.88;105560;1297;18882;-51
2022/10/23 05:00:59;;;;;;;;;2.00;2.00;;;;;21.99;56.63;100910.58;105605;1282;18524;-55
2022/10/23 05:03:26;;;;;;;;;4.00;4.00;;;;;21.99;56.76;100912.11;105549;1300;19451;-52
2022/10/23 05:05:54;;;;;;;;;;;;;;;22.00;56.79;100916.79;105553;1282;20571;-55
2022/10/23 05:08:21;;;;;;;;;4.00;4.00;;;;;21.99;56.89;100918.52;105575;1297;18398;-54
2022/10/23 05:10:49;;;;;;;;;4.00;4.00;;;;;21.99;56.66;100917.61;105577;1282;20881;-54
2022/10/23 05:13:18;;;;;;;;;3.00;3.00;;;;;21.99;56.70;100918.39;105598;1279;18445;-55
2022/10/23 05:15:45;;;;;;;;;3.00;3.00;;;;;21.99;56.81;100920.76;105544;1282;18486;-52
2022/10/23 05:18:13;;;;;;;;;4.00;4.00;;;;;21.98;56.81;100916.24;105573;1296;19430;-51
2022/10/23 05:20:40;;;;;;;;;4.00;4.00;;;;;21.98;56.70;100916.83;105590;1297;18418;-55
2022/10/23 05:23:07;;;;;;;;;3.00;3.00;;;;;21.98;56.67;100917.38;105487;1282;18719;-56
2022/10/23 05:25:35;;;;;;;;;3.00;3.00;;;;;21.98;56.69;100914.31;105553;1275;20945;-52
2022/10/23 05:28:02;;;;;;;;;2.00;2.00;;;;;21.97;56.80;100911.48;105528;1297;19988;-55
2022/10/23 05:30:29;;;;;;;;;3.00;2.00;;;;;21.98;56.64;100912.33;105551;1275;19965;-54
2022/10/23 05:32:57;;;;;;;;;5.00;4.00;;;;;21.99;56.67;100912.39;105570;1291;20774;-55
2022/10/23 05:35:24;;;;;;;;;4.00;2.00;;;;;21.98;56.58;100912.27;105499;1275;20113;-54
2022/10/23 05:37:51;;;;;;;;;2.00;2.00;;;;;21.98;56.72;100909.77;105532;1298;20050;-52
2022/10/23 05:40:19;;;;;;;;;2.00;2.00;;;;;21.97;56.70;100911.27;105532;1275;23408;-55
2022/10/23 05:42:46;;;;;;;;;3.50;2.00;;;;;21.99;56.90;100908.31;105559;1297;19609;-55
2022/10/23 05:45:13;;;;;;;;;5.00;5.00;;;;;22.01;57.02;100905.39;105569;1297;20486;-55
2022/10/23 05:47:40;;;;;;;;;3.00;2.00;;;;;22.03;56.68;100903.33;105507;1282;19284;-54
2022/10/23 05:50:08;;;;;;;;;6.00;6.00;;;;;22.08;57.20;100915.85;105538;1279;18448;-53
2022/10/23 05:52:35;;;;;;;;;3.00;2.50;;;;;22.07;57.42;100913.06;105541;1279;20222;-53
2022/10/23 05:55:02;;;;;;;;;4.00;4.00;;;;;22.07;57.69;100915.21;105519;1275;19493;-55
2022/10/23 05:57:30;;;;;;;;;2.00;2.00;;;;;22.10;57.71;100909.64;105542;1282;18547;-51
2022/10/23 05:59:57;;;;;;;;;2.00;2.00;;;;;22.11;57.94;100909.61;105582;1298;20090;-53
2022/10/23 06:02:24;;;;;;;;;2.00;2.00;;;;;22.11;57.83;100910.91;105528;1275;22160;-51
2022/10/23 06:04:51;;;;;;;;;3.00;3.00;;;;;22.12;58.11;100911.55;105510;1297;19900;-54
2022/10/23 06:07:19;;;;;;;;;2.00;2.00;;;;;22.13;58.10;100920.18;105459;1282;18529;-54
2022/10/23 06:09:46;;;;;;;;;3.00;3.00;;;;;22.13;57.80;100917.59;105501;1282;23818;-56
2022/10/23 06:12:13;;;;;;;;;4.50;2.50;;;;;22.15;58.00;100918.53;105451;1275;19905;-50
2022/10/23 06:14:40;;;;;;;;;2.50;2.50;;;;;22.15;57.84;100917.09;105467;1274;19097;-53
2022/10/23 06:17:08;;;;;;;;;;;;;;;22.13;57.92;100918.76;105399;1282;20710;-53
2022/10/23 06:19:35;;;;;;;;;2.00;2.00;;;;;22.13;58.14;100920.69;105493;1279;18289;-56
2022/10/23 06:22:02;;;;;;;;;2.00;2.00;;;;;22.13;58.02;100919.77;105511;1282;18538;-52
2022/10/23 06:24:30;;;;;;;;;3.00;3.00;;;;;22.14;57.81;100919.48;105524;1289;22508;-51
2022/10/23 06:26:57;;;;;;;;;5.00;3.50;;;;;22.17;57.89;100923.94;105588;1285;18378;-54
2022/10/23 06:29:24;;;;;;;;;5.00;3.00;;;;;22.19;58.00;100928.10;105541;1290;20118;-53
2022/10/23 06:31:51;;;;;;;;;3.50;3.50;;;;;22.18;57.95;100924.86;105528;1282;21498;-51
2022/10/23 06:34:19;;;;;;;;;3.00;3.00;;;;;22.21;58.04;100926.06;105469;1275;19963;-54
2022/10/23 06:36:46;;;;;;;;;3.00;3.00;;;;;22.23;58.26;100929.21;105500;1282;19939;-54
2022/10/23 06:39:13;;;;;;;;;5.00;5.00;;;;;22.25;58.54;100933.20;105539;1289;19523;-54
2022/10/23 06:41:43;;;;;;;;;5.00;5.00;;;;;22.26;58.50;100937.92;105505;1282;19593;-51
2022/10/23 06:44:10;;;;;;;;;6.00;5.00;;;;;22.27;58.71;100937.83;105520;1275;19951;-52
2022/10/23 06:46:37;;;;;;;;;5.00;5.00;;;;;22.29;58.64;100936.55;105490;1282;19439;-55
2022/10/23 06:49:05;;;;;;;;;6.00;6.00;;;;;22.31;58.97;100939.03;105460;1292;20217;-53
2022/10/23 06:51:32;;;;;;;;;6.00;5.00;;;;;22.30;58.98;100936.33;105547;1275;20120;-54
2022/10/23 06:53:59;;;;;;;;;6.00;6.00;;;;;22.32;59.06;100936.90;105512;1282;19306;-54
2022/10/23 06:56:28;;;;;;;;;5.50;5.50;;;;;22.32;59.50;100932.91;105517;1300;19597;-52
2022/10/23 06:58:55;;;;;;;;;6.00;6.00;;;;;22.32;60.06;100937.23;105495;1275;20455;-54
2022/10/23 07:01:23;;;;;;;;;9.00;9.00;;;;;22.31;60.45;100935.54;105412;1282;19454;-54
2022/10/23 07:03:50;;;;;;;;;10.00;9.00;;;;;22.29;60.61;100937.91;105471;1282;20900;-53
2022/10/23 07:06:17;;;;;;;;;;;;;;;22.28;60.78;100943.67;105398;1278;19978;-55
2022/10/23 07:08:45;;;;;;;;;9.00;9.00;;;;;22.29;60.77;100947.08;105467;1274;20967;-53
2022/10/23 07:11:12;;;;;;;;;6.00;6.00;;;;;22.27;60.55;100947.45;105387;1275;18441;-53
2022/10/23 07:13:39;;;;;;;;;11.00;10.00;;;;;22.28;60.74;100946.86;105445;1291;19824;-55
2022/10/23 07:16:07;;;;;;;;;13.00;13.00;;;;;22.28;60.79;100947.58;105485;1275;19448;-55
2022/10/23 07:18:34;;;;;;;;;;;;;;;22.29;60.67;100951.02;105512;1282;20108;-55
2022/10/23 07:21:01;;;;;;;;;9.00;9.00;;;;;22.30;60.68;100950.54;105491;1301;22325;-55
2022/10/23 07:23:29;;;;;;;;;6.50;6.50;;;;;22.30;60.70;100951.66;105533;1297;22287;-53
2022/10/23 07:25:56;;;;;;;;;5.00;5.00;;;;;22.30;60.46;100950.41;105421;1275;18439;-55
2022/10/23 07:28:23;;;;;;;;;;;;;;;22.31;60.30;100949.88;105381;1275;22225;-54
2022/10/23 07:30:51;;;;;;;;;8.00;7.00;;;;;22.32;60.41;100956.90;105395;1282;22068;-51
2022/10/23 07:33:18;;;;;;;;;6.50;6.00;;;;;22.31;60.31;100952.82;105448;1282;18262;-54
2022/10/23 07:35:46;;;;;;;;;;;;;;;22.32;60.07;100956.90;105461;1284;21840;-55
2022/10/23 07:38:13;;;;;;;;;11.00;11.00;;;;;22.33;60.26;100954.36;105480;1282;22289;-51
2022/10/23 07:40:41;;;;;;;;;10.00;10.00;;;;;22.32;60.18;100957.96;105555;1282;18521;-53
2022/10/23 07:43:08;;;;;;;;;9.00;7.00;;;;;22.32;60.24;100960.01;105567;1282;18923;-51
2022/10/23 07:45:35;;;;;;;;;6.00;5.00;;;;;22.31;60.45;100961.89;105487;1291;19830;-55
2022/10/23 07:48:03;;;;;;;;;9.00;9.00;;;;;22.31;60.45;100963.20;105498;1298;19623;-52
2022/10/23 07:50:30;;;;;;;;;11.00;11.00;;;;;22.32;60.42;100959.33;105444;1282;20133;-54
2022/10/23 07:52:57;;;;;;;;;11.00;11.00;;;;;22.31;60.63;100964.23;105471;1275;22830;-50
2022/10/23 07:55:25;;;;;;;;;11.00;11.00;;;;;22.32;60.67;100964.59;105503;1288;20042;-50
2022/10/23 07:57:52;;;;;;;;;17.00;17.00;;;;;22.32;60.39;100961.20;105508;1282;18918;-50
2022/10/23 08:00:19;;;;;;;;;9.00;9.00;;;;;22.33;60.24;100963.38;105252;1282;97648;-51
2022/10/23 08:02:46;;;;;;;;;10.00;10.00;;;;;22.34;60.32;100958.46;105530;1297;18528;-53
2022/10/23 08:05:14;;;;;;;;;7.50;7.50;;;;;22.36;60.24;100959.34;105457;1289;18727;-53
2022/10/23 08:07:41;;;;;;;;;5.00;5.00;;;;;22.36;60.24;100965.58;105473;1282;20995;-53
2022/10/23 08:10:08;;;;;;;;;9.00;9.00;;;;;22.36;60.19;100969.58;105449;1292;18909;-51
2022/10/23 08:12:36;;;;;;;;;10.00;10.00;;;;;22.35;60.24;100969.61;105550;1282;20141;-51
2022/10/23 08:15:03;;;;;;;;;12.00;12.00;;;;;22.35;59.99;100969.23;105494;1275;20854;-54
2022/10/23 08:17:30;;;;;;;;;10.00;9.00;;;;;22.35;60.05;100969.64;105464;1274;21073;-53
2022/10/23 08:19:58;;;;;;;;;7.00;5.00;;;;;22.34;60.19;100963.95;105489;1282;20083;-56
2022/10/23 08:22:26;;;;;;;;;9.00;9.00;;;;;22.32;60.15;100955.06;105367;1282;22877;-51
2022/10/23 08:24:53;;;;;;;;;;;;;;;22.32;60.09;100958.21;105418;1297;19768;-54
2022/10/23 08:27:20;;;;;;;;;;;;;;;22.32;59.99;100963.49;105465;1281;22411;-50
2022/10/23 08:29:47;;;;;;;;;9.00;7.50;;;;;22.31;59.94;100971.92;105540;1275;19716;-53
2022/10/23 08:32:15;;;;;;;;;7.50;7.50;;;;;22.30;60.06;100978.30;105486;1282;19611;-52
2022/10/23 08:34:42;;;;;;;;;9.00;9.00;;;;;22.27;59.78;100984.95;105478;1297;24173;-51
2022/10/23 08:37:09;;;;;;;;;12.50;11.00;;;;;22.24;59.76;100985.53;105512;1297;19696;-55
2022/10/23 08:39:36;;;;;;;;;22.00;19.00;;;;;22.21;59.76;100986.09;105501;1283;18342;-51
2022/10/23 08:42:04;;;;;;;;;19.00;18.00;;;;;22.20;59.38;100981.88;105536;1282;18831;-51
2022/10/23 08:44:31;;;;;;;;;22.00;21.00;;;;;22.18;59.44;100980.62;105514;1297;20911;-51
2022/10/23 08:46:59;;;;;;;;;27.00;25.00;;;;;22.17;59.12;100973.66;105489;1284;18841;-51
2022/10/23 08:49:26;;;;;;;;;34.00;30.00;;;;;22.17;59.18;100974.77;105385;1280;22895;-51
2022/10/23 08:51:53;;;;;;;;;22.00;21.00;;;;;22.17;58.86;100973.66;105493;1297;20831;-54
2022/10/23 08:54:21;;;;;;;;;19.00;18.00;;;;;22.16;58.87;100973.98;105302;1284;19924;-51
2022/10/23 08:56:48;;;;;;;;;26.50;25.50;;;;;22.14;58.75;100977.44;105345;1289;23472;-52
2022/10/23 08:59:19;;;;;;;;;26.00;25.00;;;;;22.14;58.72;100985.22;105402;1282;21286;-51
2022/10/23 09:01:46;;;;;;;;;26.00;22.00;;;;;22.14;58.55;100992.17;105365;1282;22548;-51
2022/10/23 09:04:13;;;;;;;;;28.00;26.00;;;;;22.11;58.38;100993.38;105541;1291;20200;-52
2022/10/23 09:06:41;;;;;;;;;26.00;24.50;;;;;22.11;58.37;100993.41;105514;1289;22624;-51
2022/10/23 09:09:08;;;;;;;;;31.00;30.00;;;;;22.11;58.34;100993.04;105557;1297;23285;-51
2022/10/23 09:11:35;;;;;;;;;27.00;25.00;;;;;22.10;58.33;100999.27;105520;1275;18607;-56
2022/10/23 09:14:03;;;;;;;;;24.00;22.00;;;;;22.10;58.35;101002.08;105485;1291;20714;-56
2022/10/23 09:16:30;;;;;;;;;33.00;32.00;;;;;22.10;58.22;101000.10;105414;1284;18481;-57
2022/10/23 09:18:57;;;;;;;;;101.00;73.00;;;;;22.12;58.22;101002.42;105453;1289;21745;-57
2022/10/23 09:21:24;;;;;;;;;124.00;86.33;;;;;22.16;58.30;101005.20;105445;1282;19359;-57
2022/10/23 09:23:52;;;;;;;;;114.00;85.00;;;;;22.21;58.14;101008.27;105453;1297;19145;-55
2022/10/23 09:26:19;;;;;;;;;;;;;;;22.24;58.22;101009.23;105441;1283;19146;-57
2022/10/23 09:28:47;;;;;;;;;;;;;;;22.28;58.27;101005.66;105419;1282;20735;-58
2022/10/23 09:31:14;;;;;;;;;81.50;60.50;;;;;22.28;58.17;101007.19;105541;1281;19443;-57
2022/10/23 09:33:41;;;;;;;;;;;;;;;22.27;58.51;101012.59;105548;1291;20300;-56
2022/10/23 09:36:09;;;;;;;;;;;;;;;22.27;58.60;101013.02;105535;1297;19313;-57
2022/10/23 09:38:37;;;;;;;;;;;;;;;22.28;58.37;101017.44;105547;1275;20519;-54
2022/10/23 09:41:04;;;;;;;;;59.00;45.50;;;;;22.29;58.37;101020.09;105552;1297;19812;-55
2022/10/23 09:43:31;;;;;;;;;55.00;43.00;;;;;22.29;58.47;101023.74;105577;1292;21821;-57
2022/10/23 09:45:59;;;;;;;;;45.00;35.00;;;;;22.29;58.55;101026.80;105530;1279;20108;-55
2022/10/23 09:48:26;;;;;;;;;49.00;39.00;;;;;22.29;58.64;101027.40;105584;1291;20357;-54
2022/10/23 09:50:53;;;;;;;;;34.00;32.00;;;;;22.28;58.56;101027.95;105620;1291;20842;-55
2022/10/23 09:53:21;;;;;;;;;34.00;29.00;;;;;22.28;58.58;101021.77;105609;1281;19972;-55
2022/10/23 09:55:48;;;;;;;;;27.00;21.00;;;;;22.30;58.64;101029.21;105568;1281;23527;-53
2022/10/23 09:58:15;;;;;;;;;27.50;26.00;;;;;22.30;58.85;101023.58;105528;1300;19530;-54
2022/10/23 10:00:42;;;;;;;;;;;;;;;22.29;58.95;101021.50;105454;1281;18770;-53
2022/10/23 10:03:10;;;;;;;;;24.00;20.00;;;;;22.28;58.89;101018.91;105597;1297;19688;-55
2022/10/23 10:05:37;;;;;;;;;29.50;25.50;;;;;22.28;58.99;101015.46;105500;1282;22251;-52
2022/10/23 10:08:04;;;;;;;;;18.00;18.00;;;;;22.25;58.97;101016.69;105462;1281;18724;-55
2022/10/23 10:10:32;;;;;;;;;22.00;19.00;;;;;22.24;59.18;101019.26;105453;1281;21464;-53
2022/10/23 10:12:59;;;;;;;;;17.00;15.00;;;;;22.23;59.04;101022.08;105456;1275;19474;-53
2022/10/23 10:15:26;;;;;;;;;14.00;14.00;;;;;22.24;59.02;101022.84;105470;1282;18710;-52
2022/10/23 10:17:54;;;;;;;;;22.00;17.00;;;;;22.24;59.05;101022.88;105470;1291;20218;-52
2022/10/23 10:20:21;;;;;;;;;19.00;18.00;;;;;22.24;59.00;101019.05;105489;1282;30921;-55
2022/10/23 10:22:48;;;;;;;;;17.00;14.00;;;;;22.24;58.92;101019.80;105493;1291;20033;-54
2022/10/23 10:25:15;;;;;;;;;15.00;14.00;;;;;22.22;59.02;101017.20;105425;1282;18601;-57
2022/10/23 10:27:43;;;;;;;;;15.00;13.00;;;;;22.23;58.92;101009.31;105461;1275;21001;-56
2022/10/23 10:30:10;;;;;;;;;15.00;14.00;;;;;22.22;58.90;101011.40;105592;1298;18678;-55
2022/10/23 10:32:37;;;;;;;;;14.00;13.00;;;;;22.22;58.93;101013.59;105609;1282;19962;-53
2022/10/23 10:35:05;;;;;;;;;21.00;17.00;;;;;22.22;58.76;101017.22;105619;1284;20710;-54
2022/10/23 10:37:32;;;;;;;;;11.00;10.00;;;;;22.22;58.86;101011.31;105560;1289;22459;-54
2022/10/23 10:39:59;;;;;;;;;9.50;9.00;;;;;22.22;58.75;101009.77;105647;1275;18728;-54
2022/10/23 10:42:27;;;;;;;;;;;;;;;22.22;58.58;101007.79;105605;1297;20749;-55
2022/10/23 10:44:54;;;;;;;;;15.00;13.00;;;;;22.22;58.65;101005.85;105607;1281;24099;-55
2022/10/23 10:47:23;;;;;;;;;12.00;10.67;;;;;22.22;58.52;101005.23;105613;1280;20194;-55
2022/10/23 10:49:50;;;;;;;;;11.50;11.00;;;;;22.22;58.48;101008.91;105592;1275;19455;-53
2022/10/23 10:52:17;;;;;;;;;17.00;14.00;;;;;22.21;58.64;101011.13;105656;1298;20271;-52
2022/10/23 10:54:44;;;;;;;;;9.00;7.00;;;;;22.22;58.42;101010.73;105491;1275;18764;-52
2022/10/23 10:57:12;;;;;;;;;9.00;9.00;;;;;22.23;58.30;101010.04;105629;1298;20862;-56
2022/10/23 10:59:41;;;;;;;;;10.00;9.00;;;;;22.23;58.37;101010.41;105589;1282;19944;-54
2022/10/23 11:02:08;;;;;;;;;12.00;9.00;;;;;22.23;58.47;101011.53;105546;1282;19977;-54
2022/10/23 11:04:35;;;;;;;;;12.00;11.00;;;;;22.22;58.39;101009.59;105586;1282;19405;-55
2022/10/23 11:07:03;;;;;;;;;9.00;7.00;;;;;22.22;58.34;101008.75;105595;1282;20291;-53
2022/10/23 11:09:30;;;;;;;;;13.00;13.00;;;;;22.22;58.25;101004.30;105560;1281;21222;-56
2022/10/23 11:11:57;;;;;;;;;;;;;;;22.21;58.21;100999.13;105632;1300;19518;-53
2022/10/23 11:14:25;;;;;;;;;11.00;10.00;;;;;22.22;58.32;101000.34;105596;1282;22330;-55
2022/10/23 11:16:52;;;;;;;;;8.00;7.00;;;;;22.21;58.12;101000.12;105547;1297;20250;-56
2022/10/23 11:19:19;;;;;;;;;10.00;9.50;;;;;22.21;58.33;101000.08;105563;1297;21469;-53